Time;durP1;ratioP1;P1;durP2;ratioP2;P2;SDS_P1;SDS_P2;PMS_P1;PMS_P2;Temp;Humidity;BMP_temperature;BMP_pressure;BME280_temperature;BME280_humidity;BME280_pressure;Samples;Min_cycle;Max_cycle;Signal;HPM_P1;HPM_P2
2022/01/05 00:01:30;;;;;;;10.95;1.60;;;;;;;6.61;73.69;98058.09;5091304;28;20052;-60
2022/01/05 00:03:57;;;;;;;7.78;1.92;;;;;;;6.63;73.74;98059.72;5091192;28;20052;-60
2022/01/05 00:06:23;;;;;;;7.30;2.03;;;;;;;6.64;73.67;98057.91;5091141;28;20089;-60
2022/01/05 00:08:50;;;;;;;8.00;2.28;;;;;;;6.65;73.75;98054.34;5089581;28;20048;-62
2022/01/05 00:11:16;;;;;;;8.48;2.20;;;;;;;6.67;73.12;98056.84;5089435;28;20052;-61
2022/01/05 00:13:43;;;;;;;8.68;2.00;;;;;;;6.67;73.21;98051.63;5090866;28;20113;-61
2022/01/05 00:16:10;;;;;;;9.02;2.30;;;;;;;6.65;72.85;98052.56;5091171;28;20102;-60
2022/01/05 00:18:36;;;;;;;7.88;2.38;;;;;;;6.64;72.89;98060.53;5091165;28;20079;-60
2022/01/05 00:21:04;;;;;;;10.38;1.73;;;;;;;6.62;72.78;98054.56;5090619;28;20060;-62
2022/01/05 00:23:31;;;;;;;7.65;1.98;;;;;;;6.61;72.83;98052.88;5090676;28;20040;-60
2022/01/05 00:26:01;;;;;;;10.60;2.00;;;;;;;6.59;72.87;98052.16;5090534;28;20044;-61
2022/01/05 00:28:27;;;;;;;12.45;2.55;;;;;;;6.56;72.96;98049.75;5090124;28;20458;-61
2022/01/05 00:30:54;;;;;;;6.72;2.28;;;;;;;6.54;72.47;98052.47;5090703;28;20056;-61
2022/01/05 00:33:20;;;;;;;12.02;2.10;;;;;;;6.50;72.38;98041.38;5090591;28;20052;-61
2022/01/05 00:35:47;;;;;;;12.90;2.38;;;;;;;6.47;72.46;98044.19;5090568;28;20089;-61
2022/01/05 00:38:13;;;;;;;9.10;2.17;;;;;;;6.44;72.56;98048.81;5090266;28;20048;-61
2022/01/05 00:40:40;;;;;;;7.65;2.28;;;;;;;6.39;72.43;98039.50;5090146;28;20094;-61
2022/01/05 00:43:06;;;;;;;8.45;2.15;;;;;;;6.36;72.74;98034.47;5090688;28;20101;-60
2022/01/05 00:45:33;;;;;;;13.50;2.20;;;;;;;6.33;72.68;98045.16;5090555;28;20048;-63
2022/01/05 00:48:00;;;;;;;7.10;1.83;;;;;;;6.31;72.74;98036.56;5090539;28;20133;-60
2022/01/05 00:50:26;;;;;;;9.30;2.03;;;;;;;6.29;72.52;98042.84;5090275;28;20120;-61
2022/01/05 00:52:59;;;;;;;8.98;1.70;;;;;;;6.27;72.52;98037.72;5090228;28;20093;-61
2022/01/05 00:55:27;;;;;;;8.02;1.92;;;;;;;6.24;72.29;98036.16;5090515;28;20056;-61
2022/01/05 00:57:54;;;;;;;9.25;1.50;;;;;;;6.22;72.50;98038.03;5088795;28;20055;-61
2022/01/05 01:00:21;;;;;;;6.90;1.98;;;;;;;6.21;72.54;98038.13;5090463;28;20690;-61
2022/01/05 01:02:48;;;;;;;8.35;2.30;;;;;;;6.18;72.57;98048.78;5089996;28;20097;-60
2022/01/05 01:05:15;;;;;;;7.85;2.20;;;;;;;6.14;72.40;98045.53;5088847;28;20385;-61
2022/01/05 01:07:42;;;;;;;6.88;2.03;;;;;;;6.10;72.69;98050.13;5090008;28;20040;-61
2022/01/05 01:10:09;;;;;;;8.50;1.80;;;;;;;6.07;72.59;98047.72;5088902;28;20381;-60
2022/01/05 01:12:36;;;;;;;9.20;1.70;;;;;;;6.05;72.41;98046.97;5090363;28;20058;-60
2022/01/05 01:15:05;;;;;;;7.15;1.70;;;;;;;6.03;72.35;98050.59;5090016;28;20093;-60
2022/01/05 01:17:31;;;;;;;9.30;1.75;;;;;;;6.00;72.34;98052.50;5088953;28;20056;-61
2022/01/05 01:19:58;;;;;;;8.55;2.13;;;;;;;5.97;72.17;98060.53;5089980;28;20052;-62
2022/01/05 01:22:27;;;;;;;7.70;1.55;;;;;;;5.94;72.53;98058.09;5090016;28;20110;-61
2022/01/05 01:24:54;;;;;;;6.28;1.30;;;;;;;5.91;72.69;98060.09;5072835;28;20048;-60
2022/01/05 01:27:21;;;;;;;5.43;1.65;;;;;;;5.87;72.36;98060.28;5089947;28;20048;-61
2022/01/05 01:29:47;;;;;;;13.85;2.28;;;;;;;5.85;72.68;98059.56;5090100;28;20492;-60
2022/01/05 01:32:14;;;;;;;8.50;1.58;;;;;;;5.84;72.77;98059.66;5090128;28;20048;-62
2022/01/05 01:34:40;;;;;;;8.65;1.90;;;;;;;5.82;72.47;98061.50;5089948;28;20048;-61
2022/01/05 01:37:07;;;;;;;8.80;1.55;;;;;;;5.80;72.37;98059.00;5090177;28;20052;-60
2022/01/05 01:39:34;;;;;;;10.27;1.77;;;;;;;5.78;72.43;98062.63;5090011;28;20048;-60
2022/01/05 01:42:01;;;;;;;11.05;1.83;;;;;;;5.74;72.22;98062.00;5092354;28;20058;-61
2022/01/05 01:44:28;;;;;;;6.45;1.60;;;;;;;5.71;72.18;98056.97;5093837;28;20092;-61
2022/01/05 01:46:54;;;;;;;7.40;1.50;;;;;;;5.68;72.15;98063.25;5093832;28;20101;-60
2022/01/05 01:49:21;;;;;;;13.07;1.80;;;;;;;5.64;72.24;98061.75;5093341;28;20530;-61
2022/01/05 01:51:47;;;;;;;8.18;1.83;;;;;;;5.60;72.19;98065.50;5092435;28;20097;-60
2022/01/05 01:54:14;;;;;;;7.35;2.13;;;;;;;5.57;72.16;98081.38;5093969;28;20454;-61
2022/01/05 01:56:43;;;;;;;8.23;1.77;;;;;;;5.54;72.38;98078.94;5093556;28;20113;-61
2022/01/05 01:59:10;;;;;;;5.65;1.58;;;;;;;5.52;72.56;98075.59;5092403;28;20518;-60
2022/01/05 02:01:36;;;;;;;11.25;1.88;;;;;;;5.48;72.57;98080.19;5093302;28;20052;-62
2022/01/05 02:04:03;;;;;;;8.43;1.73;;;;;;;5.45;72.62;98086.44;5093182;28;20109;-61
2022/01/05 02:06:31;;;;;;;10.07;2.08;;;;;;;5.44;72.62;98076.09;5093346;28;20109;-61
2022/01/05 02:08:59;;;;;;;7.28;1.58;;;;;;;5.42;72.86;98072.75;5093443;28;20048;-60
2022/01/05 02:11:25;;;;;;;9.80;1.92;;;;;;;5.41;73.19;98079.72;5092934;28;20549;-61
2022/01/05 02:13:52;;;;;;;8.07;2.05;;;;;;;5.40;73.28;98067.63;5093056;28;20052;-60
2022/01/05 02:16:22;;;;;;;9.85;2.17;;;;;;;5.41;72.64;98071.91;5093252;28;20056;-60
2022/01/05 02:18:58;;;;;;;8.35;1.55;;;;;;;5.41;72.86;98071.91;5092033;28;20105;-60
2022/01/05 02:21:25;;;;;;;13.18;1.95;;;;;;;5.40;72.94;98064.16;5093287;28;20488;-60
2022/01/05 02:23:52;;;;;;;11.65;2.20;;;;;;;5.41;73.13;98063.22;5091815;28;20097;-61
2022/01/05 02:26:19;;;;;;;7.88;1.75;;;;;;;5.39;72.67;98062.50;5093129;28;20492;-60
2022/01/05 02:28:46;;;;;;;12.73;1.70;;;;;;;5.38;72.69;98063.44;5092969;28;20048;-63
2022/01/05 02:31:13;;;;;;;11.98;2.10;;;;;;;5.34;72.35;98053.19;5092652;28;20044;-60
2022/01/05 02:33:43;;;;;;;7.53;1.73;;;;;;;5.32;72.31;98062.88;5093000;28;20059;-61
2022/01/05 02:36:12;;;;;;;11.18;2.25;;;;;;;5.29;72.19;98057.84;5091722;28;20056;-62
2022/01/05 02:38:40;;;;;;;9.10;1.85;;;;;;;5.25;72.33;98052.91;5091684;28;20082;-62
2022/01/05 02:41:10;;;;;;;6.82;1.65;;;;;;;5.20;72.17;98054.03;5092457;28;20496;-61
2022/01/05 02:43:40;;;;;;;12.38;2.15;;;;;;;5.19;72.52;98065.41;5092636;28;20051;-61
2022/01/05 02:46:25;;;;;;;13.23;2.25;;;;;;;5.13;70.63;98065.81;5092873;28;20565;-60
2022/01/05 02:48:54;;;;;;;11.20;2.65;;;;;;;5.13;72.09;98064.97;5092794;28;20075;-63
2022/01/05 02:51:21;;;;;;;14.10;2.33;;;;;;;5.11;72.10;98066.81;5091113;28;20052;-61
2022/01/05 02:53:47;;;;;;;8.10;2.10;;;;;;;5.08;72.34;98065.22;5091198;28;20109;-61
2022/01/05 02:56:14;;;;;;;11.88;1.95;;;;;;;5.05;72.38;98066.25;5092495;28;20446;-61
2022/01/05 02:58:41;;;;;;;8.30;1.77;;;;;;;5.02;72.10;98065.63;5092667;28;20480;-61
2022/01/05 03:01:08;;;;;;;12.57;2.47;;;;;;;4.99;72.16;98069.25;5092348;28;20056;-61
2022/01/05 03:03:35;;;;;;;8.20;1.52;;;;;;;4.95;72.34;98073.84;5092449;28;20044;-60
2022/01/05 03:06:01;;;;;;;11.30;2.55;;;;;;;4.93;71.93;98077.44;5092419;28;20093;-60
2022/01/05 03:08:28;;;;;;;12.50;2.42;;;;;;;4.90;72.29;98077.66;5092209;28;20048;-62
2022/01/05 03:10:55;;;;;;;10.32;2.05;;;;;;;4.87;72.38;98070.00;5092243;28;20557;-61
2022/01/05 03:13:23;;;;;;;11.25;1.90;;;;;;;4.85;72.36;98066.66;5092561;28;20055;-60
2022/01/05 03:15:51;;;;;;;11.07;2.15;;;;;;;4.83;72.33;98070.19;5092145;28;20084;-60
2022/01/05 03:18:18;;;;;;;10.43;2.42;;;;;;;4.81;72.56;98074.66;5091042;28;20109;-60
2022/01/05 03:20:46;;;;;;;9.73;1.50;;;;;;;4.79;72.07;98073.91;5090824;28;20056;-60
2022/01/05 03:23:14;;;;;;;8.27;1.67;;;;;;;4.78;72.21;98071.38;5091964;28;20052;-60
2022/01/05 03:25:41;;;;;;;12.50;2.17;;;;;;;4.74;72.35;98083.78;5092239;28;20048;-62
2022/01/05 03:28:08;;;;;;;13.55;1.55;;;;;;;4.73;72.52;98076.03;5090868;28;20488;-59
2022/01/05 03:30:35;;;;;;;8.98;1.70;;;;;;;4.71;72.34;98080.53;5090462;28;20040;-62
2022/01/05 03:33:10;;;;;;;8.43;2.20;;;;;;;4.68;72.29;98087.59;5091880;28;20484;-59
2022/01/05 03:35:43;;;;;;;6.13;2.05;;;;;;;4.66;72.28;98091.22;5091832;28;20044;-62
2022/01/05 03:38:10;;;;;;;;;;;;;;;4.65;69.22;98084.34;5092491;28;20082;-60
2022/01/05 03:40:37;;;;;;;12.82;1.80;;;;;;;4.67;72.17;98088.53;5091608;28;19920;-61
2022/01/05 03:43:06;;;;;;;13.07;2.05;;;;;;;4.64;72.08;98091.28;5090500;28;20059;-61
2022/01/05 03:45:35;;;;;;;10.60;1.60;;;;;;;4.63;72.22;98088.81;5090461;28;20091;-60
2022/01/05 03:48:08;;;;;;;12.07;1.60;;;;;;;4.61;72.55;98096.72;5091691;28;20095;-60
2022/01/05 03:50:35;;;;;;;7.43;1.83;;;;;;;4.61;72.45;98103.69;5090535;28;20059;-61
2022/01/05 03:53:04;;;;;;;10.15;1.85;;;;;;;4.60;72.58;98102.00;5090245;28;20055;-61
2022/01/05 03:55:32;;;;;;;14.25;2.20;;;;;;;4.56;71.82;98104.78;5091530;28;20500;-62
2022/01/05 03:57:58;;;;;;;8.27;1.75;;;;;;;4.54;72.12;98101.44;5091678;28;20109;-61
2022/01/05 04:00:27;;;;;;;10.75;2.08;;;;;;;4.53;72.04;98102.34;5091342;28;20055;-62
2022/01/05 04:02:54;;;;;;;13.02;2.22;;;;;;;4.51;71.39;98103.38;5091297;28;20044;-61
2022/01/05 04:05:21;;;;;;;11.10;2.20;;;;;;;4.49;72.13;98100.88;5091025;28;20059;-62
2022/01/05 04:07:49;;;;;;;10.15;2.58;;;;;;;4.50;72.44;98115.59;5091364;28;20480;-61
2022/01/05 04:10:17;;;;;;;11.82;2.63;;;;;;;4.48;72.07;98100.97;5090064;28;20121;-60
2022/01/05 04:12:45;;;;;;;9.32;2.45;;;;;;;4.48;72.57;98114.81;5091166;28;20485;-60
2022/01/05 04:15:11;;;;;;;13.82;1.92;;;;;;;4.51;73.20;98114.66;5091156;28;20052;-61
2022/01/05 04:17:38;;;;;;;17.95;2.40;;;;;;;4.52;72.94;98118.94;5091565;28;20048;-61
2022/01/05 04:20:05;;;;;;;7.75;1.33;;;;;;;4.55;72.72;98117.91;5091070;28;20052;-61
2022/01/05 04:22:32;;;;;;;9.57;2.10;;;;;;;4.54;72.23;98121.44;5090014;28;20044;-60
2022/01/05 04:24:58;;;;;;;9.68;2.20;;;;;;;4.53;72.17;98120.59;5090965;28;20040;-61
2022/01/05 04:27:25;;;;;;;15.07;2.33;;;;;;;4.53;72.31;98118.00;5091012;28;20039;-60
2022/01/05 04:29:51;;;;;;;9.13;2.35;;;;;;;4.51;72.03;98119.88;5090684;28;20044;-60
2022/01/05 04:32:18;;;;;;;13.90;2.20;;;;;;;4.50;72.49;98115.59;5091214;28;20121;-61
2022/01/05 04:35:05;;;;;;;11.18;2.40;;;;;;;4.48;71.70;98122.63;5090770;28;20492;-61
2022/01/05 04:37:51;;;;;;;9.52;2.50;;;;;;;4.48;71.94;98129.63;5089743;28;20044;-60
2022/01/05 04:40:18;;;;;;;8.93;2.55;;;;;;;4.47;72.41;98120.13;5090256;28;20056;-62
2022/01/05 04:42:44;;;;;;;14.88;2.60;;;;;;;4.47;72.40;98118.38;5090662;28;20044;-61
2022/01/05 04:45:11;;;;;;;10.90;2.17;;;;;;;4.46;72.28;98134.94;5090513;28;20052;-60
2022/01/05 04:47:38;;;;;;;15.65;2.60;;;;;;;4.46;71.77;98127.13;5089394;28;20267;-59
2022/01/05 04:50:05;;;;;;;10.68;2.60;;;;;;;4.44;72.50;98126.34;5090361;28;20048;-62
2022/01/05 04:52:32;;;;;;;9.15;2.47;;;;;;;4.44;72.30;98118.53;5090347;28;20044;-59
2022/01/05 04:54:58;;;;;;;13.77;2.60;;;;;;;4.46;72.10;98152.31;5090397;28;20746;-60
2022/01/05 04:57:25;;;;;;;12.27;2.40;;;;;;;4.46;72.69;98121.91;5090281;28;20558;-61
2022/01/05 04:59:51;;;;;;;13.55;2.40;;;;;;;4.47;72.79;98118.38;5090093;28;20449;-61
2022/01/05 05:02:18;;;;;;;11.80;2.13;;;;;;;4.48;72.43;98114.81;5090230;28;20097;-60
2022/01/05 05:04:49;;;;;;;9.85;2.15;;;;;;;4.50;72.31;98105.16;5090200;28;20148;-61
2022/01/05 05:07:16;;;;;;;12.07;2.53;;;;;;;4.50;72.37;98107.78;5089968;28;20044;-60
2022/01/05 05:09:42;;;;;;;12.55;2.65;;;;;;;4.50;71.81;98118.19;5090116;28;20048;-60
2022/01/05 05:12:09;;;;;;;11.43;2.63;;;;;;;4.49;72.05;98115.69;5088783;28;20048;-61
2022/01/05 05:14:36;;;;;;;11.63;2.47;;;;;;;4.50;72.19;98112.13;5089164;28;20048;-60
2022/01/05 05:17:04;;;;;;;10.43;2.70;;;;;;;4.49;72.23;98126.09;5094402;28;20086;-61
2022/01/05 05:19:31;;;;;;;11.63;3.10;;;;;;;4.49;72.16;98131.31;5094102;28;20109;-60
2022/01/05 05:21:58;;;;;;;10.65;3.10;;;;;;;4.48;72.38;98114.00;5094147;28;20043;-61
2022/01/05 05:24:25;;;;;;;18.20;3.80;;;;;;;4.49;72.05;98110.47;5093127;28;20079;-59
2022/01/05 05:26:52;;;;;;;12.45;3.10;;;;;;;4.47;72.12;98113.16;5094491;28;20051;-60
2022/01/05 05:29:18;;;;;;;12.38;2.45;;;;;;;4.49;72.17;98113.88;5094018;28;20112;-59
2022/01/05 05:31:45;;;;;;;14.38;2.63;;;;;;;4.46;71.33;98121.91;5094205;28;20106;-60
2022/01/05 05:34:12;;;;;;;11.98;2.40;;;;;;;4.47;72.05;98120.97;5094043;28;20051;-61
2022/01/05 05:36:38;;;;;;;15.50;3.05;;;;;;;4.44;72.06;98110.72;5094083;28;20044;-60
2022/01/05 05:39:05;;;;;;;20.38;2.90;;;;;;;4.45;72.23;98119.38;5094018;28;20048;-60
2022/01/05 05:41:31;;;;;;;24.52;3.08;;;;;;;4.45;71.74;98119.38;5092684;28;20106;-62
2022/01/05 05:43:58;;;;;;;13.52;3.03;;;;;;;4.44;71.87;98108.13;5093814;28;20048;-61
2022/01/05 05:46:25;;;;;;;15.63;2.88;;;;;;;4.43;71.82;98129.91;5093895;28;20102;-60
2022/01/05 05:48:51;;;;;;;17.35;3.13;;;;;;;4.41;71.49;98111.75;5093631;28;20083;-61
2022/01/05 05:51:18;;;;;;;13.35;2.80;;;;;;;4.42;71.77;98123.00;5093676;28;20052;-62
2022/01/05 05:53:44;;;;;;;16.75;3.45;;;;;;;4.41;71.73;98113.53;5094158;28;20052;-61
2022/01/05 05:56:11;;;;;;;14.30;3.25;;;;;;;4.39;71.43;98131.00;5093710;28;20052;-60
2022/01/05 05:58:38;;;;;;;13.63;3.00;;;;;;;4.37;71.93;98120.66;5093477;28;20056;-60
2022/01/05 06:01:04;;;;;;;18.05;3.28;;;;;;;4.39;71.90;98117.97;5092070;28;20385;-61
2022/01/05 06:03:31;;;;;;;8.90;3.17;;;;;;;4.39;71.99;98115.38;5093285;28;20055;-60
2022/01/05 06:05:58;;;;;;;13.63;3.30;;;;;;;4.40;72.29;98112.69;5093573;28;20062;-63
2022/01/05 06:08:24;;;;;;;21.33;3.08;;;;;;;4.40;71.87;98117.03;5093576;28;20393;-61
2022/01/05 06:10:51;;;;;;;19.35;3.42;;;;;;;4.39;71.63;98128.41;5093254;28;20040;-60
2022/01/05 06:13:18;;;;;;;11.80;2.60;;;;;;;4.40;72.24;98122.25;5093421;28;20048;-60
2022/01/05 06:15:44;;;;;;;13.88;2.80;;;;;;;4.40;71.61;98136.13;5093335;28;20052;-62
2022/01/05 06:18:11;;;;;;;17.25;2.90;;;;;;;4.40;72.07;98119.63;5093296;28;20480;-60
2022/01/05 06:20:37;;;;;;;12.15;2.70;;;;;;;4.40;71.85;98123.09;5093361;28;20044;-60
2022/01/05 06:23:04;;;;;;;12.77;3.33;;;;;;;4.41;71.49;98116.94;5093128;28;20071;-61
2022/01/05 06:25:30;;;;;;;14.25;3.15;;;;;;;4.40;71.15;98123.09;5093076;28;20475;-62
2022/01/05 06:27:57;;;;;;;16.30;3.60;;;;;;;4.40;71.78;98124.84;5092253;28;20044;-60
2022/01/05 06:30:24;;;;;;;12.90;2.97;;;;;;;4.40;71.96;98132.66;5092727;28;20707;-60
2022/01/05 06:32:50;;;;;;;11.30;3.03;;;;;;;4.38;71.22;98145.78;5092769;28;20044;-60
2022/01/05 06:35:23;;;;;;;15.60;3.78;;;;;;;4.36;71.04;98132.03;5092717;28;20401;-61
2022/01/05 06:37:51;;;;;;;17.63;3.70;;;;;;;4.33;70.50;98147.81;5091672;28;20056;-60
2022/01/05 06:40:21;;;;;;;13.43;3.60;;;;;;;4.33;71.83;98136.56;5092524;28;20440;-60
2022/01/05 06:42:48;;;;;;;26.52;4.03;;;;;;;4.30;71.09;98135.00;5092452;28;20052;-61
2022/01/05 06:45:14;;;;;;;13.57;3.25;;;;;;;4.29;71.27;98146.31;5074544;28;20093;-62
2022/01/05 06:47:41;;;;;;;14.38;2.67;;;;;;;4.29;71.73;98135.88;5092848;28;20055;-61
2022/01/05 06:50:09;;;;;;;15.38;3.50;;;;;;;4.28;70.57;98170.69;5092387;28;20048;-61
2022/01/05 06:52:37;;;;;;;15.68;3.42;;;;;;;4.30;72.43;98148.00;5091646;28;20416;-61
2022/01/05 06:55:04;;;;;;;13.27;3.00;;;;;;;4.33;72.17;98147.00;5091434;28;20052;-62
2022/01/05 06:57:31;;;;;;;9.35;2.78;;;;;;;4.35;72.65;98160.75;5091958;28;20058;-63
2022/01/05 06:59:58;;;;;;;16.40;2.88;;;;;;;4.38;72.78;98155.38;5091529;28;20044;-62
2022/01/05 07:02:24;;;;;;;11.82;3.47;;;;;;;4.40;72.27;98153.50;5092405;28;20044;-60
2022/01/05 07:04:51;;;;;;;12.10;3.08;;;;;;;4.42;72.50;98151.66;5092198;28;20062;-63
2022/01/05 07:07:18;;;;;;;16.13;3.38;;;;;;;4.41;71.58;98153.44;5092313;28;20052;-61
2022/01/05 07:09:45;;;;;;;11.88;2.67;;;;;;;4.43;72.16;98143.78;5090458;28;20059;-61
2022/01/05 07:12:12;;;;;;;15.63;3.30;;;;;;;4.43;71.93;98137.72;5091759;28;20059;-61
2022/01/05 07:14:39;;;;;;;15.27;3.00;;;;;;;4.44;72.18;98141.97;5092068;28;20109;-61
2022/01/05 07:17:05;;;;;;;13.30;2.70;;;;;;;4.43;72.49;98154.19;5091915;28;20051;-62
2022/01/05 07:19:32;;;;;;;14.15;3.42;;;;;;;4.41;72.21;98163.84;5091818;28;20047;-63
2022/01/05 07:21:58;;;;;;;19.40;4.05;;;;;;;4.38;70.78;98148.38;5090191;28;20040;-62
2022/01/05 07:24:25;;;;;;;13.25;3.63;;;;;;;4.41;72.36;98142.19;5091728;28;20048;-61
2022/01/05 07:26:51;;;;;;;14.70;3.65;;;;;;;4.42;72.21;98146.47;5091307;28;20097;-60
2022/01/05 07:29:19;;;;;;;16.98;3.70;;;;;;;4.43;72.74;98164.63;5091482;28;20117;-62
2022/01/05 07:31:46;;;;;;;11.35;3.50;;;;;;;4.48;72.66;98161.72;5091478;28;20113;-61
2022/01/05 07:34:13;;;;;;;14.57;3.85;;;;;;;4.49;72.01;98166.00;5090446;28;20047;-62
2022/01/05 07:36:40;;;;;;;19.83;4.10;;;;;;;4.48;71.64;98156.50;5090429;28;20051;-62
2022/01/05 07:39:07;;;;;;;19.60;4.43;;;;;;;4.53;72.65;98158.88;5090208;28;20051;-64
2022/01/05 07:41:35;;;;;;;21.05;3.92;;;;;;;4.55;72.61;98176.09;5090188;28;20565;-60
2022/01/05 07:44:04;;;;;;;15.30;3.95;;;;;;;4.60;72.83;98169.78;5091548;28;20036;-61
2022/01/05 07:46:31;;;;;;;18.38;4.20;;;;;;;4.61;72.34;98176.66;5091295;28;20105;-61
2022/01/05 07:48:57;;;;;;;13.13;3.70;;;;;;;4.63;72.57;98188.66;5091024;28;20052;-61
2022/01/05 07:51:24;;;;;;;26.10;4.28;;;;;;;4.64;72.18;98155.63;5090317;28;20101;-61
2022/01/05 07:53:51;;;;;;;15.63;3.60;;;;;;;4.66;72.56;98174.63;5091090;28;20189;-61
2022/01/05 07:56:17;;;;;;;15.40;3.85;;;;;;;4.69;72.46;98171.84;5091466;28;20044;-60
2022/01/05 07:58:44;;;;;;;22.23;4.18;;;;;;;4.66;72.34;98164.19;5091340;28;20060;-62
2022/01/05 08:01:11;;;;;;;15.70;3.80;;;;;;;4.69;72.29;98177.06;5090784;28;20131;-62
2022/01/05 08:03:38;;;;;;;16.15;4.45;;;;;;;4.71;72.64;98156.13;5090920;28;20047;-61
2022/01/05 08:06:20;;;;;;;13.07;4.00;;;;;;;4.73;72.46;98162.91;5091035;28;20091;-62
2022/01/05 08:08:49;;;;;;;15.23;3.17;;;;;;;4.74;71.46;98163.75;5089922;28;20459;-61
2022/01/05 08:11:16;;;;;;;15.77;3.85;;;;;;;4.71;71.66;98151.72;5089339;28;20419;-61
2022/01/05 08:13:43;;;;;;;11.52;2.92;;;;;;;4.71;72.32;98161.31;5090978;28;20048;-61
2022/01/05 08:16:10;;;;;;;18.88;4.10;;;;;;;4.65;71.90;98154.69;5090873;28;20056;-62
2022/01/05 08:18:36;;;;;;;19.90;4.05;;;;;;;4.60;71.46;98154.13;5089482;28;20048;-61
2022/01/05 08:21:03;;;;;;;14.45;3.78;;;;;;;4.50;71.43;98154.69;5090094;28;20097;-63
2022/01/05 08:23:30;;;;;;;21.00;3.72;;;;;;;4.41;71.54;98163.03;5090801;28;20059;-61
2022/01/05 08:25:57;;;;;;;14.93;3.28;;;;;;;4.27;71.55;98151.59;5090937;28;20051;-61
2022/01/05 08:28:23;;;;;;;7.82;2.83;;;;;;;4.17;71.54;98150.47;5090649;28;20498;-63
2022/01/05 08:30:50;;;;;;;13.88;3.20;;;;;;;4.03;71.72;98154.69;5089240;28;20105;-61
2022/01/05 08:33:17;;;;;;;13.70;3.03;;;;;;;3.89;72.04;98142.44;5090539;28;20048;-62
2022/01/05 08:35:45;;;;;;;12.60;3.30;;;;;;;3.78;72.66;98143.03;5090583;28;20059;-61
2022/01/05 08:38:13;;;;;;;10.95;3.55;;;;;;;3.69;73.20;98147.88;5090192;28;20385;-61
2022/01/05 08:40:40;;;;;;;16.15;4.55;;;;;;;3.61;73.47;98143.13;5090068;28;20056;-62
2022/01/05 08:43:10;;;;;;;10.60;3.15;;;;;;;3.53;73.91;98133.13;5089085;28;20487;-60
2022/01/05 08:45:38;;;;;;;11.93;3.72;;;;;;;3.45;74.09;98135.31;5088536;28;20052;-62
2022/01/05 08:48:05;;;;;;;16.02;4.60;;;;;;;3.39;74.82;98132.13;5089607;28;20063;-61
2022/01/05 08:50:33;;;;;;;14.05;3.72;;;;;;;3.34;74.77;98136.72;5089867;28;20101;-63
2022/01/05 08:53:01;;;;;;;14.57;4.00;;;;;;;3.31;75.49;98143.84;5088951;28;20051;-61
2022/01/05 08:55:35;;;;;;;13.98;4.43;;;;;;;3.26;75.27;98126.72;5088996;28;20484;-62
2022/01/05 08:58:02;;;;;;;14.35;4.25;;;;;;;3.27;75.73;98132.78;5088779;28;20051;-61
2022/01/05 09:00:30;;;;;;;16.42;4.03;;;;;;;3.27;76.16;98145.78;5088692;28;20134;-62
2022/01/05 09:02:57;;;;;;;16.52;4.75;;;;;;;3.27;76.37;98153.56;5088935;28;20051;-61
2022/01/05 09:05:24;;;;;;;19.58;5.28;;;;;;;3.28;76.65;98139.66;5090206;28;20055;-62
2022/01/05 09:07:51;;;;;;;15.63;4.63;;;;;;;3.32;77.38;98156.75;5090304;28;20110;-60
2022/01/05 09:10:18;;;;;;;13.93;4.03;;;;;;;3.35;77.13;98147.97;5088655;28;20458;-61
2022/01/05 09:12:45;;;;;;;16.63;4.78;;;;;;;3.38;77.61;98147.81;5090039;28;20052;-61
2022/01/05 09:15:11;;;;;;;20.88;5.05;;;;;;;3.39;77.50;98134.72;5089968;28;20101;-59
2022/01/05 09:17:38;;;;;;;14.23;4.78;;;;;;;3.40;77.74;98125.13;5088993;28;20159;-61
2022/01/05 09:20:07;;;;;;;14.18;4.07;;;;;;;3.45;77.52;98137.91;5088932;28;20141;-61
2022/01/05 09:22:38;;;;;;;17.52;4.57;;;;;;;3.50;77.99;98134.13;5089876;28;20056;-62
2022/01/05 09:25:07;;;;;;;17.75;5.30;;;;;;;3.52;78.08;98132.28;5088884;28;20048;-62
2022/01/05 09:27:34;;;;;;;13.75;4.07;;;;;;;3.57;77.24;98129.44;5089979;28;20565;-62
2022/01/05 09:30:00;;;;;;;15.02;4.50;;;;;;;3.60;77.24;98155.31;5090083;28;20541;-60
2022/01/05 09:32:27;;;;;;;13.35;4.32;;;;;;;3.60;76.69;98159.66;5088645;28;20055;-60
2022/01/05 09:34:54;;;;;;;17.20;5.13;;;;;;;3.63;77.03;98139.50;5090111;28;20056;-61
2022/01/05 09:37:25;;;;;;;19.75;5.22;;;;;;;3.65;77.27;98152.44;5088669;28;20044;-60
2022/01/05 09:42:38;;;;;;;12.07;4.53;;;;;;;3.65;76.66;98171.50;5090148;28;20125;-62
2022/01/05 09:45:27;;;;;;;9.10;4.15;;;;;;;3.63;76.17;98172.50;5089668;28;20401;-63
2022/01/05 09:48:09;;;;;;;7.50;3.33;;;;;;;3.67;76.79;98148.00;5088536;28;20047;-60
2022/01/05 09:50:43;;;;;;;11.45;3.55;;;;;;;3.63;76.02;98151.69;5087999;28;20056;-65
2022/01/05 09:53:11;;;;;;;10.65;2.97;;;;;;;3.62;76.49;98153.44;5089657;28;20052;-61
2022/01/05 09:55:38;;;;;;;7.70;2.95;;;;;;;3.59;76.75;98157.97;5088370;28;20386;-61
2022/01/05 09:58:04;;;;;;;9.50;3.38;;;;;;;3.58;76.85;98174.50;5089967;28;20044;-60
2022/01/05 10:00:31;;;;;;;12.27;3.53;;;;;;;3.55;76.83;98159.06;5089577;28;20048;-62
2022/01/05 10:02:57;;;;;;;9.35;3.22;;;;;;;3.53;76.65;98161.75;5091761;28;20066;-62
2022/01/05 10:05:24;;;;;;;9.25;2.88;;;;;;;3.52;76.78;98173.91;5093144;28;20044;-60
2022/01/05 10:07:51;;;;;;;7.10;2.95;;;;;;;3.50;76.77;98175.75;5093542;28;20052;-62
2022/01/05 10:10:18;;;;;;;8.25;3.63;;;;;;;3.49;76.89;98173.25;5093203;28;20051;-61
2022/01/05 10:12:49;;;;;;;9.77;3.20;;;;;;;3.49;77.30;98178.44;5093406;28;20044;-60
2022/01/05 10:15:16;;;;;;;5.60;2.55;;;;;;;3.50;77.15;98185.31;5093272;28;20048;-60
2022/01/05 10:17:43;;;;;;;11.70;3.65;;;;;;;3.52;77.74;98186.91;5091760;28;20078;-60
2022/01/05 10:20:11;;;;;;;8.10;3.70;;;;;;;3.56;78.22;98199.75;5092785;28;20048;-62
2022/01/05 10:22:45;;;;;;;8.13;2.78;;;;;;;3.56;77.58;98198.00;5091769;28;20052;-62
2022/01/05 10:25:21;;;;;;;7.47;2.80;;;;;;;3.59;77.57;98189.22;5092809;28;20048;-60
2022/01/05 10:28:25;;;;;;;7.60;2.58;;;;;;;3.63;77.61;98201.13;5091776;28;20044;-62
2022/01/05 10:30:52;;;;;;;5.78;2.20;;;;;;;3.72;77.95;98194.56;5091502;28;20056;-61
2022/01/05 10:33:28;;;;;;;5.25;2.45;;;;;;;3.73;77.51;98206.66;5092849;28;20086;-61
2022/01/05 10:35:56;;;;;;;4.43;2.40;;;;;;;3.77;77.51;98223.78;5092602;28;20052;-60
2022/01/05 10:38:28;;;;;;;5.28;2.08;;;;;;;3.78;77.52;98215.09;5091169;28;20161;-62
2022/01/05 10:40:55;;;;;;;7.93;2.60;;;;;;;3.80;77.22;98218.41;5091125;28;20051;-61
2022/01/05 10:43:21;;;;;;;6.00;2.40;;;;;;;3.76;76.58;98217.75;5092690;28;20040;-61
2022/01/05 10:45:53;;;;;;;6.68;2.38;;;;;;;3.74;76.26;98217.00;5092707;28;20113;-64
2022/01/05 10:48:24;;;;;;;4.68;2.17;;;;;;;3.72;76.34;98226.66;5091493;28;20117;-63
2022/01/05 10:51:05;;;;;;;4.15;2.38;;;;;;;3.64;75.71;98234.03;5092355;28;20127;-61
2022/01/05 10:53:32;;;;;;;5.13;2.45;;;;;;;3.65;76.91;98231.34;5091600;28;20143;-61
2022/01/05 10:55:59;;;;;;;4.47;2.10;;;;;;;3.62;77.35;98230.66;5092719;28;20563;-62
2022/01/05 10:58:25;;;;;;;4.55;2.35;;;;;;;3.62;77.48;98241.06;5091011;28;20097;-61
2022/01/05 11:00:54;;;;;;;5.03;2.60;;;;;;;3.60;77.88;98251.56;5092228;28;20048;-61
2022/01/05 11:03:30;;;;;;;5.57;2.75;;;;;;;3.58;77.58;98245.59;5090783;28;20397;-62
2022/01/05 11:06:10;;;;;;;4.90;2.33;;;;;;;3.58;77.02;98242.13;5091195;28;20047;-60
2022/01/05 11:08:52;;;;;;;4.85;2.08;;;;;;;3.61;77.48;98249.78;5092151;28;20486;-63
2022/01/05 11:11:30;;;;;;;3.10;1.60;;;;;;;3.63;77.42;98259.19;5091945;28;20071;-61
2022/01/05 11:13:56;;;;;;;3.15;2.47;;;;;;;3.69;78.28;98255.44;5089935;28;20480;-62
2022/01/05 11:16:31;;;;;;;7.07;3.35;;;;;;;3.70;78.01;98248.47;5091308;28;20055;-61
2022/01/05 11:19:21;;;;;;;6.97;3.38;;;;;;;3.70;78.20;98231.09;5091184;28;20048;-66
2022/01/05 11:22:14;;;;;;;6.03;2.25;;;;;;;3.76;78.05;98240.34;5090882;28;20048;-61
2022/01/05 11:24:42;;;;;;;;;;;;;;;3.83;77.63;98246.03;5091483;28;20585;-61
2022/01/05 11:27:22;;;;;;;8.48;3.03;;;;;;;3.91;79.18;98255.13;5090787;28;19920;-60
2022/01/05 11:29:49;;;;;;;5.82;2.85;;;;;;;3.99;79.96;98254.72;5090589;28;20052;-61
2022/01/05 11:32:20;;;;;;;12.63;3.30;;;;;;;4.07;80.19;98256.06;5091902;28;20069;-62
2022/01/05 11:34:47;;;;;;;7.35;2.95;;;;;;;4.18;80.49;98258.91;5090532;28;20059;-61
2022/01/05 11:37:14;;;;;;;11.23;3.30;;;;;;;4.28;80.25;98265.31;5091757;28;20047;-61
2022/01/05 11:39:43;;;;;;;11.55;3.30;;;;;;;4.37;80.59;98273.53;5091469;28;20052;-60
2022/01/05 11:42:14;;;;;;;12.10;3.50;;;;;;;4.49;80.68;98267.63;5090464;28;20052;-61
2022/01/05 11:44:50;;;;;;;12.05;2.60;;;;;;;4.57;79.66;98264.59;5091803;28;20066;-61